createdAt,value
2023-01-25T00:01:06.846Z,19.07
2023-01-25T00:03:40.109Z,20.33
2023-01-25T00:06:14.076Z,18.97
2023-01-25T00:08:56.306Z,19.67
2023-01-25T00:11:24.596Z,19.77
2023-01-25T00:13:55.100Z,19.33
2023-01-25T00:16:25.346Z,20.13
2023-01-25T00:18:56.333Z,18.73
2023-01-25T00:21:26.229Z,19.83
2023-01-25T00:23:54.748Z,19.57
2023-01-25T00:26:27.351Z,18.30
2023-01-25T00:28:55.896Z,18.40
2023-01-25T00:32:14.545Z,18.27
2023-01-25T00:34:49.876Z,18.33
2023-01-25T00:37:52.522Z,18.03
2023-01-25T00:40:21.628Z,17.17
2023-01-25T00:45:37.216Z,17.30
2023-01-25T00:48:09.410Z,17.90
2023-01-25T00:50:39.721Z,16.80
2023-01-25T00:53:11.481Z,17.50
2023-01-25T00:55:42.474Z,17.13
2023-01-25T00:58:15.616Z,17.60
2023-01-25T01:00:45.993Z,17.47
2023-01-25T01:03:18.518Z,17.70
2023-01-25T01:05:47.627Z,18.03
2023-01-25T01:08:18.425Z,16.07
2023-01-25T01:10:50.978Z,17.17
2023-01-25T01:13:22.649Z,15.90
2023-01-25T01:15:54.224Z,16.90
2023-01-25T01:18:23.569Z,17.80
2023-01-25T01:20:58.345Z,16.47
2023-01-25T01:23:33.381Z,17.50
2023-01-25T01:26:13.807Z,16.60
2023-01-25T01:28:44.923Z,16.47
2023-01-25T01:31:15.649Z,18.27
2023-01-25T01:33:50.753Z,17.20
2023-01-25T01:36:21.452Z,17.53
2023-01-25T01:38:53.529Z,16.53
2023-01-25T01:41:29.440Z,17.13
2023-01-25T01:44:01.453Z,16.70
2023-01-25T01:46:42.504Z,15.77
2023-01-25T01:49:33.265Z,17.13
2023-01-25T01:52:15.975Z,16.87
2023-01-25T01:54:56.708Z,17.20
2023-01-25T01:57:40.620Z,16.23
2023-01-25T02:00:26.735Z,16.93
2023-01-25T02:02:58.325Z,16.63
2023-01-25T02:05:52.750Z,17.80
2023-01-25T02:08:21.131Z,16.30
2023-01-25T02:10:51.090Z,16.70
2023-01-25T02:13:23.539Z,17.00
2023-01-25T02:15:53.597Z,16.87
2023-01-25T02:18:21.078Z,16.40
2023-01-25T02:20:57.949Z,15.57
2023-01-25T02:24:01.636Z,17.27
2023-01-25T02:26:31.390Z,17.30
2023-01-25T02:29:18.040Z,15.67
2023-01-25T02:31:49.678Z,16.80
2023-01-25T02:34:21.225Z,17.20
2023-01-25T02:36:53.545Z,16.10
2023-01-25T02:39:46.154Z,15.70
2023-01-25T02:42:15.535Z,16.37
2023-01-25T02:44:44.115Z,16.60
2023-01-25T02:47:13.682Z,17.13
2023-01-25T02:49:45.182Z,16.73
2023-01-25T02:52:16.652Z,16.53
2023-01-25T02:54:48.596Z,16.87
2023-01-25T02:57:22.379Z,16.47
2023-01-25T02:59:55.396Z,17.30
2023-01-25T03:02:26.093Z,15.97
2023-01-25T03:04:57.451Z,16.43
2023-01-25T03:07:29.219Z,15.83
2023-01-25T03:10:01.403Z,16.20
2023-01-25T03:12:32.590Z,16.00
2023-01-25T03:15:02.569Z,18.10
2023-01-25T03:17:34.867Z,17.73
2023-01-25T03:20:09.068Z,17.43
2023-01-25T03:22:40.688Z,15.40
2023-01-25T03:25:12.228Z,16.83
2023-01-25T03:30:22.462Z,16.47
2023-01-25T03:32:55.868Z,17.67
2023-01-25T03:35:27.403Z,15.47
2023-01-25T03:37:55.700Z,15.90
2023-01-25T03:40:25.606Z,16.77
2023-01-25T03:42:56.081Z,16.10
2023-01-25T03:45:25.634Z,17.67
2023-01-25T03:47:59.281Z,17.40
2023-01-25T03:50:27.295Z,16.63
2023-01-25T03:53:04.283Z,16.93
2023-01-25T03:55:34.687Z,17.47
2023-01-25T03:58:06.956Z,17.70
2023-01-25T04:00:51.228Z,17.00
2023-01-25T04:03:23.882Z,17.77
2023-01-25T04:05:55.992Z,17.20
2023-01-25T04:08:26.793Z,18.63
2023-01-25T04:11:05.285Z,17.40
2023-01-25T04:13:40.768Z,17.00
2023-01-25T04:16:14.902Z,17.50
2023-01-25T04:18:46.434Z,17.47
2023-01-25T04:21:16.254Z,17.43
2023-01-25T04:23:48.421Z,17.03
2023-01-25T04:26:19.567Z,17.07
2023-01-25T04:28:48.902Z,19.20
2023-01-25T04:31:17.179Z,17.93
2023-01-25T04:33:50.597Z,17.13
2023-01-25T04:36:21.499Z,17.70
2023-01-25T04:38:49.550Z,17.80
2023-01-25T04:41:20.128Z,18.80
2023-01-25T04:43:50.358Z,16.43
2023-01-25T04:46:20.820Z,18.53
2023-01-25T04:48:52.256Z,18.17
2023-01-25T04:51:21.291Z,18.07
2023-01-25T04:53:52.996Z,16.80
2023-01-25T04:56:22.529Z,17.57
2023-01-25T04:58:52.869Z,18.37
2023-01-25T05:01:24.313Z,17.03
2023-01-25T05:03:52.281Z,17.03
2023-01-25T05:06:22.933Z,17.20
2023-01-25T05:08:53.612Z,17.37
2023-01-25T05:11:23.462Z,17.00
2023-01-25T05:13:57.645Z,17.00
2023-01-25T05:16:29.196Z,16.80
2023-01-25T05:19:00.929Z,17.87
2023-01-25T05:21:48.622Z,17.70
2023-01-25T05:24:17.713Z,17.77
2023-01-25T05:27:06.215Z,16.77
2023-01-25T05:29:42.231Z,16.70
2023-01-25T05:35:03.177Z,16.93
2023-01-25T05:37:33.673Z,16.93
2023-01-25T05:40:04.176Z,16.93
2023-01-25T05:42:34.723Z,17.23
2023-01-25T05:45:10.290Z,16.07
2023-01-25T05:47:41.932Z,16.13
2023-01-25T05:50:20.428Z,17.37
2023-01-25T05:52:48.726Z,16.13
2023-01-25T05:55:22.305Z,16.33
2023-01-25T05:57:54.011Z,17.30
2023-01-25T06:00:23.455Z,15.77
2023-01-25T06:02:55.662Z,16.13
2023-01-25T06:05:25.705Z,16.73
2023-01-25T06:07:57.397Z,15.03
2023-01-25T06:10:30.523Z,15.60
2023-01-25T06:13:02.603Z,15.40
2023-01-25T06:15:35.057Z,17.03
2023-01-25T06:18:10.111Z,16.13
2023-01-25T06:20:46.659Z,15.87
2023-01-25T06:23:18.704Z,17.27
2023-01-25T06:25:55.200Z,17.27
2023-01-25T06:28:26.737Z,18.07
2023-01-25T06:30:58.407Z,17.07
2023-01-25T06:33:30.269Z,15.43
2023-01-25T06:36:09.059Z,16.13
2023-01-25T06:38:36.973Z,17.87
2023-01-25T06:41:18.711Z,17.20
2023-01-25T06:43:52.638Z,16.90
2023-01-25T06:46:24.667Z,17.10
2023-01-25T06:48:55.020Z,17.57
2023-01-25T06:51:23.863Z,17.27
2023-01-25T06:53:54.980Z,17.43
2023-01-25T06:56:27.526Z,18.07
2023-01-25T06:58:55.258Z,19.13
2023-01-25T07:01:27.651Z,19.53
2023-01-25T07:03:58.767Z,19.73
2023-01-25T07:06:40.157Z,19.30
2023-01-25T07:09:18.920Z,17.97
2023-01-25T07:11:47.779Z,19.33
2023-01-25T07:14:23.075Z,18.27
2023-01-25T07:16:56.869Z,18.93
2023-01-25T07:19:27.211Z,18.00
2023-01-25T07:21:55.681Z,17.63
2023-01-25T07:27:14.227Z,18.30
2023-01-25T07:29:44.296Z,18.30
2023-01-25T07:32:19.848Z,18.13
2023-01-25T07:34:55.221Z,18.20
2023-01-25T07:37:29.994Z,18.30
2023-01-25T07:40:06.027Z,19.33
2023-01-25T07:42:36.412Z,19.83
2023-01-25T07:45:08.046Z,17.97
2023-01-25T07:47:40.285Z,19.30
2023-01-25T07:50:09.609Z,19.20
2023-01-25T07:52:41.394Z,19.30
2023-01-25T07:55:13.745Z,19.70
2023-01-25T07:57:48.083Z,58.43
2023-01-25T08:00:18.026Z,50.37
2023-01-25T08:03:00.064Z,50.27
2023-01-25T08:05:31.816Z,46.47
2023-01-25T08:08:00.098Z,43.17
2023-01-25T08:10:32.603Z,43.47
2023-01-25T08:13:01.416Z,38.43
2023-01-25T08:15:31.639Z,37.33
2023-01-25T08:18:03.767Z,35.70
2023-01-25T08:20:31.434Z,33.87
2023-01-25T08:23:03.618Z,32.20
2023-01-25T08:25:32.108Z,30.90
2023-01-25T08:28:03.570Z,28.83
2023-01-25T08:30:33.541Z,25.83
2023-01-25T08:33:03.057Z,26.07
2023-01-25T08:35:34.067Z,24.63
2023-01-25T08:38:02.336Z,23.90
2023-01-25T08:40:35.871Z,25.43
2023-01-25T08:43:09.971Z,21.63
2023-01-25T08:45:39.608Z,21.03
2023-01-25T08:48:09.687Z,20.20
2023-01-25T08:50:40.114Z,18.60
2023-01-25T08:53:08.146Z,19.03
2023-01-25T08:55:36.632Z,17.20
2023-01-25T08:58:04.392Z,18.77
2023-01-25T09:00:36.796Z,17.70
2023-01-25T09:03:06.897Z,16.73
2023-01-25T09:05:39.217Z,17.10
2023-01-25T09:08:11.673Z,16.80
2023-01-25T09:10:49.033Z,15.20
2023-01-25T09:13:16.947Z,17.00
2023-01-25T09:15:45.654Z,15.90
2023-01-25T09:18:14.628Z,14.10
2023-01-25T09:20:42.637Z,14.87
2023-01-25T09:23:12.774Z,14.33
2023-01-25T09:25:42.324Z,14.40
2023-01-25T09:28:11.648Z,14.00
2023-01-25T09:30:48.826Z,13.80
2023-01-25T09:33:22.101Z,13.90
2023-01-25T09:35:59.273Z,14.07
2023-01-25T09:38:28.770Z,13.43
2023-01-25T09:41:08.603Z,13.17
2023-01-25T09:44:14.548Z,12.23
2023-01-25T09:50:10.783Z,12.20
2023-01-25T09:53:07.338Z,12.90
2023-01-25T09:55:38.881Z,13.00
2023-01-25T09:58:18.894Z,13.07
2023-01-25T10:00:50.715Z,12.67
2023-01-25T10:03:32.508Z,12.43
2023-01-25T10:06:01.982Z,12.27
2023-01-25T10:09:02.001Z,12.33
2023-01-25T10:11:34.015Z,11.77
2023-01-25T10:14:04.104Z,10.77
2023-01-25T10:17:03.393Z,12.23
2023-01-25T10:20:00.702Z,11.00
2023-01-25T10:22:48.318Z,12.43
2023-01-25T10:26:07.622Z,10.50
2023-01-25T10:29:12.518Z,12.10
2023-01-25T10:32:05.245Z,12.20
2023-01-25T10:34:55.330Z,9.70
2023-01-25T10:37:36.103Z,10.87
2023-01-25T10:40:25.347Z,11.20
2023-01-25T10:43:24.590Z,10.47
2023-01-25T10:45:55.133Z,11.40
2023-01-25T10:48:35.754Z,10.83
2023-01-25T10:51:04.774Z,10.83
2023-01-25T10:53:47.467Z,10.33
2023-01-25T10:56:26.109Z,10.60
2023-01-25T10:59:05.638Z,10.33
2023-01-25T11:01:36.428Z,10.40
2023-01-25T11:04:27.588Z,11.70
2023-01-25T11:06:59.178Z,10.87
2023-01-25T11:12:22.201Z,10.10
2023-01-25T11:14:58.012Z,10.90
2023-01-25T11:17:32.121Z,10.00
2023-01-25T11:20:21.184Z,9.70
2023-01-25T11:22:57.708Z,11.40
2023-01-25T11:25:36.303Z,10.97
2023-01-25T11:28:20.269Z,11.50
2023-01-25T11:30:54.028Z,10.03
2023-01-25T11:33:31.050Z,10.43
2023-01-25T11:36:33.366Z,9.33
2023-01-25T11:39:39.760Z,9.53
2023-01-25T11:42:46.842Z,10.10
2023-01-25T11:45:36.125Z,10.67
2023-01-25T11:48:17.834Z,10.77
2023-01-25T11:51:10.914Z,9.80
2023-01-25T11:54:26.104Z,10.13
2023-01-25T11:57:36.506Z,13.37
2023-01-25T12:00:40.913Z,13.83
2023-01-25T12:03:33.367Z,15.63
2023-01-25T12:06:41.747Z,15.87
2023-01-25T12:09:40.189Z,16.47
2023-01-25T12:12:33.774Z,17.20
2023-01-25T12:15:42.164Z,16.33
2023-01-25T12:18:44.951Z,16.23
2023-01-25T12:21:31.481Z,17.43
2023-01-25T12:24:37.690Z,18.10
2023-01-25T12:27:24.537Z,19.20
2023-01-25T12:30:45.894Z,18.83
2023-01-25T12:33:28.699Z,17.57
2023-01-25T12:36:38.104Z,17.93
2023-01-25T12:39:30.579Z,19.13
2023-01-25T12:42:12.946Z,18.83
2023-01-25T12:44:52.773Z,19.00
2023-01-25T12:48:18.012Z,18.10
2023-01-25T12:51:00.447Z,18.37
2023-01-25T12:53:44.586Z,19.47
2023-01-25T12:56:56.309Z,18.10
2023-01-25T12:59:50.665Z,17.47
2023-01-25T13:02:39.590Z,17.70
2023-01-25T13:05:42.668Z,17.07
2023-01-25T13:08:34.450Z,17.63
2023-01-25T13:11:39.879Z,17.57
2023-01-25T13:14:26.871Z,17.17
2023-01-25T13:17:43.187Z,17.67
2023-01-25T13:20:57.410Z,17.20
2023-01-25T13:26:47.358Z,17.23
2023-01-25T13:29:54.562Z,17.07
2023-01-25T13:32:39.483Z,17.37
2023-01-25T13:35:41.430Z,17.10
2023-01-25T13:38:35.568Z,16.97
2023-01-25T13:41:19.502Z,16.80
2023-01-25T13:43:49.605Z,15.83
2023-01-25T13:46:24.624Z,17.27
2023-01-25T13:49:11.035Z,16.13
2023-01-25T13:51:52.101Z,17.13
2023-01-25T13:54:20.069Z,15.60
2023-01-25T13:56:50.071Z,14.13
2023-01-25T13:59:27.400Z,16.00
2023-01-25T14:01:57.139Z,15.03
2023-01-25T14:04:27.782Z,14.43
2023-01-25T14:07:00.540Z,15.40
2023-01-25T14:09:35.445Z,16.23
2023-01-25T14:12:08.448Z,14.43
2023-01-25T14:14:40.504Z,14.50
2023-01-25T14:17:22.341Z,14.73
2023-01-25T14:19:58.535Z,14.33
2023-01-25T14:22:32.038Z,14.13
2023-01-25T14:25:20.660Z,13.80
2023-01-25T14:27:54.127Z,15.90
2023-01-25T14:30:30.724Z,16.00
2023-01-25T14:33:06.722Z,14.53
2023-01-25T14:38:38.947Z,11.40
2023-01-25T14:41:27.711Z,10.57
2023-01-25T14:44:00.138Z,10.23
2023-01-25T14:46:34.788Z,9.77
2023-01-25T14:49:29.781Z,9.30
2023-01-25T14:52:20.180Z,9.60
2023-01-25T14:55:00.215Z,9.53
2023-01-25T14:57:45.836Z,8.57
2023-01-25T15:00:31.636Z,8.77
2023-01-25T15:03:14.134Z,8.43
2023-01-25T15:05:46.430Z,8.73
2023-01-25T15:08:31.294Z,7.77
2023-01-25T15:11:20.254Z,7.97
2023-01-25T15:14:02.668Z,8.13
2023-01-25T15:16:36.214Z,8.07
2023-01-25T15:19:06.505Z,7.50
2023-01-25T15:21:35.991Z,7.77
2023-01-25T15:24:12.720Z,7.87
2023-01-25T15:26:39.709Z,7.80
2023-01-25T15:29:31.214Z,7.73
2023-01-25T15:32:03.851Z,8.17
2023-01-25T15:34:36.934Z,8.23
2023-01-25T15:37:04.750Z,7.87
2023-01-25T15:39:35.080Z,7.47
2023-01-25T15:42:05.426Z,7.33
2023-01-25T15:44:33.486Z,7.40
2023-01-25T15:47:03.587Z,7.30
2023-01-25T15:49:37.099Z,10.33
2023-01-25T15:52:06.095Z,11.53
2023-01-25T15:54:34.111Z,11.10
2023-01-25T15:57:04.848Z,12.07
2023-01-25T15:59:35.968Z,12.97
2023-01-25T16:02:04.079Z,12.60
2023-01-25T16:04:34.303Z,13.40
2023-01-25T16:07:03.054Z,14.97
2023-01-25T16:09:33.133Z,15.30
2023-01-25T16:12:06.201Z,16.53
2023-01-25T16:14:37.953Z,16.23
2023-01-25T16:17:08.204Z,14.87
2023-01-25T16:19:42.784Z,15.53
2023-01-25T16:25:04.376Z,15.83
2023-01-25T16:27:39.045Z,14.10
2023-01-25T16:30:12.913Z,13.97
2023-01-25T16:32:44.215Z,14.63
2023-01-25T16:35:14.435Z,15.03
2023-01-25T16:37:44.797Z,14.33
2023-01-25T16:40:27.041Z,14.20
2023-01-25T16:43:00.064Z,14.93
2023-01-25T16:45:29.084Z,15.07
2023-01-25T16:47:58.248Z,14.40
2023-01-25T16:50:29.623Z,14.37
2023-01-25T16:53:02.927Z,14.83
2023-01-25T16:55:35.082Z,14.63
2023-01-25T16:58:06.701Z,15.37
2023-01-25T17:00:34.973Z,14.77
2023-01-25T17:03:09.042Z,17.17
2023-01-25T17:05:42.158Z,15.47
2023-01-25T17:08:09.957Z,17.20
2023-01-25T17:10:41.745Z,18.70
2023-01-25T17:13:14.025Z,17.17
2023-01-25T17:15:44.991Z,17.27
2023-01-25T17:18:11.949Z,16.80
2023-01-25T17:20:43.937Z,17.70
2023-01-25T17:23:15.080Z,17.00
2023-01-25T17:28:29.543Z,16.93
2023-01-25T17:31:00.168Z,17.23
2023-01-25T17:33:31.768Z,16.87
2023-01-25T17:36:04.996Z,18.00
2023-01-25T17:38:35.765Z,17.63
2023-01-25T17:41:12.050Z,20.37
2023-01-25T17:43:40.837Z,16.93
2023-01-25T17:46:37.601Z,18.57
2023-01-25T17:49:15.913Z,17.30
2023-01-25T17:51:47.896Z,17.53
2023-01-25T17:54:17.277Z,17.50
2023-01-25T17:56:48.270Z,18.80
2023-01-25T17:59:18.780Z,17.73
2023-01-25T18:01:54.093Z,18.13
2023-01-25T18:04:23.521Z,19.33
2023-01-25T18:06:54.239Z,19.17
2023-01-25T18:09:29.261Z,18.73
2023-01-25T18:11:59.530Z,17.53
2023-01-25T18:14:31.460Z,18.83
2023-01-25T18:17:02.711Z,19.17
2023-01-25T18:19:34.757Z,19.13
2023-01-25T18:22:05.643Z,18.30
2023-01-25T18:24:44.144Z,18.67
2023-01-25T18:27:24.092Z,19.00
2023-01-25T18:30:34.327Z,20.10
2023-01-25T18:33:05.663Z,19.73
2023-01-25T18:35:36.647Z,19.27
2023-01-25T18:38:07.754Z,19.87
2023-01-25T18:40:40.962Z,19.90
2023-01-25T18:43:17.082Z,18.23
2023-01-25T18:45:49.875Z,19.50
2023-01-25T18:48:21.183Z,19.47
2023-01-25T18:50:52.405Z,18.70
2023-01-25T18:53:21.805Z,18.80
2023-01-25T18:56:23.122Z,20.20
2023-01-25T18:58:59.922Z,19.30
2023-01-25T19:01:30.697Z,19.97
2023-01-25T19:04:00.504Z,20.10
2023-01-25T19:06:31.593Z,19.10
2023-01-25T19:09:04.055Z,19.67
2023-01-25T19:11:34.544Z,20.53
2023-01-25T19:14:02.874Z,20.27
2023-01-25T19:16:33.569Z,21.50
2023-01-25T19:19:04.072Z,21.07
2023-01-25T19:21:33.280Z,20.90
2023-01-25T19:24:04.883Z,19.60
2023-01-25T19:26:36.869Z,20.93
2023-01-25T19:29:05.606Z,20.70
2023-01-25T19:31:37.025Z,20.70
2023-01-25T19:34:07.961Z,21.50
2023-01-25T19:36:40.601Z,22.70
2023-01-25T19:39:12.182Z,21.30
2023-01-25T19:41:40.169Z,22.30
2023-01-25T19:44:13.165Z,23.30
2023-01-25T19:49:26.032Z,22.37
2023-01-25T19:52:00.178Z,22.67
2023-01-25T19:54:32.217Z,22.83
2023-01-25T19:57:02.193Z,21.97
2023-01-25T19:59:32.818Z,22.97
2023-01-25T20:02:04.291Z,23.03
2023-01-25T20:04:32.310Z,23.13
2023-01-25T20:07:05.628Z,23.20
2023-01-25T20:09:37.058Z,22.33
2023-01-25T20:12:15.211Z,22.77
2023-01-25T20:14:47.020Z,23.73
2023-01-25T20:17:19.073Z,22.77
2023-01-25T20:19:47.912Z,23.03
2023-01-25T20:22:18.583Z,24.10
2023-01-25T20:24:48.644Z,22.90
2023-01-25T20:27:19.280Z,22.00
2023-01-25T20:29:53.198Z,22.47
2023-01-25T20:32:32.285Z,22.70
2023-01-25T20:35:06.076Z,22.83
2023-01-25T20:37:37.659Z,24.57
2023-01-25T20:40:07.466Z,23.40
2023-01-25T20:42:37.820Z,24.40
2023-01-25T20:45:08.996Z,23.87
2023-01-25T20:47:41.625Z,24.10
2023-01-25T20:50:12.569Z,24.17
2023-01-25T20:52:40.847Z,22.37
2023-01-25T20:55:11.234Z,24.83
2023-01-25T20:57:42.397Z,22.77
2023-01-25T21:00:10.216Z,23.40
2023-01-25T21:02:44.626Z,23.90
2023-01-25T21:05:15.778Z,23.37
2023-01-25T21:10:33.035Z,23.33
2023-01-25T21:13:01.199Z,23.23
2023-01-25T21:15:30.427Z,23.77
2023-01-25T21:20:42.778Z,23.50
2023-01-25T21:23:13.180Z,23.80
2023-01-25T21:25:41.107Z,22.93
2023-01-25T21:30:55.193Z,22.97
2023-01-25T21:33:24.029Z,22.63
2023-01-25T21:35:58.279Z,23.50
2023-01-25T21:38:28.570Z,22.60
2023-01-25T21:41:10.652Z,23.07
2023-01-25T21:43:59.753Z,22.40
2023-01-25T21:46:30.332Z,22.63
2023-01-25T21:49:27.138Z,22.93
2023-01-25T21:52:03.379Z,22.43
2023-01-25T21:54:37.697Z,22.43
2023-01-25T21:57:11.779Z,23.53
2023-01-25T21:59:43.278Z,22.43
2023-01-25T22:02:16.701Z,22.50
2023-01-25T22:04:47.209Z,22.20
2023-01-25T22:07:18.684Z,22.37
2023-01-25T22:09:49.668Z,22.40
2023-01-25T22:12:19.577Z,23.23
2023-01-25T22:14:49.508Z,21.70
2023-01-25T22:17:22.264Z,20.47
2023-01-25T22:19:54.032Z,22.57
2023-01-25T22:22:23.437Z,21.73
2023-01-25T22:24:50.443Z,21.33
2023-01-25T22:27:28.748Z,22.43
2023-01-25T22:29:56.820Z,21.43
2023-01-25T22:32:28.046Z,20.70
2023-01-25T22:34:59.534Z,21.77
2023-01-25T22:37:31.822Z,21.93
2023-01-25T22:40:03.230Z,20.97
2023-01-25T22:42:34.456Z,20.37
2023-01-25T22:47:49.328Z,20.80
2023-01-25T22:50:20.989Z,21.47
2023-01-25T22:52:51.595Z,19.13
2023-01-25T22:55:21.813Z,20.13
2023-01-25T22:57:52.448Z,21.23
2023-01-25T23:00:22.831Z,20.57
2023-01-25T23:02:54.217Z,19.63
2023-01-25T23:05:23.249Z,19.83
2023-01-25T23:07:52.984Z,21.30
2023-01-25T23:10:28.030Z,20.77
2023-01-25T23:12:58.365Z,20.77
2023-01-25T23:15:30.714Z,19.80
2023-01-25T23:18:21.190Z,20.00
2023-01-25T23:20:54.716Z,20.00
2023-01-25T23:23:25.747Z,20.40
2023-01-25T23:25:54.616Z,19.20
2023-01-25T23:28:23.087Z,19.17
2023-01-25T23:30:52.666Z,19.70
2023-01-25T23:33:20.559Z,19.57
2023-01-25T23:35:49.081Z,19.50
2023-01-25T23:38:20.727Z,18.07
2023-01-25T23:40:51.900Z,19.00
2023-01-25T23:43:22.395Z,19.57
2023-01-25T23:45:54.987Z,20.50
2023-01-25T23:48:26.330Z,19.57
2023-01-25T23:51:03.119Z,19.07
2023-01-25T23:53:38.366Z,19.07
2023-01-25T23:56:19.540Z,18.67
2023-01-25T23:58:52.293Z,19.20
